Time;durP1;ratioP1;P1;durP2;ratioP2;P2;SDS_P1;SDS_P2;PMS_P1;PMS_P2;Temp;Humidity;BMP_temperature;BMP_pressure;BME280_temperature;BME280_humidity;BME280_pressure;Samples;Min_cycle;Max_cycle;Signal;HPM_P1;HPM_P2
2023/01/05 00:01:11;;;;;;;47.33;6.97;;;9.10;99.90;;;;;;5013996;28;20048;-83
2023/01/05 00:03:37;;;;;;;64.50;9.70;;;9.20;99.90;;;;;;5015089;28;20091;-84
2023/01/05 00:06:05;;;;;;;76.43;8.70;;;9.10;99.90;;;;;;5013902;28;20046;-83
2023/01/05 00:08:31;;;;;;;58.90;7.00;;;9.20;99.90;;;;;;5013375;28;20046;-83
2023/01/05 00:24:42;;;;;;;47.25;8.77;;;9.10;99.90;;;;;;5014666;28;20050;-83
2023/01/05 00:27:08;;;;;;;57.53;7.35;;;9.00;99.90;;;;;;5013383;28;20052;-83
2023/01/05 00:29:34;;;;;;;76.65;10.00;;;9.00;99.90;;;;;;5012938;28;20053;-83
2023/01/05 00:31:59;;;;;;;43.08;7.40;;;9.00;99.90;;;;;;5013043;28;20046;-83
2023/01/05 00:34:25;;;;;;;51.88;9.18;;;9.10;99.90;;;;;;5013169;28;20049;-83
2023/01/05 00:36:50;;;;;;;55.13;6.00;;;9.10;99.90;;;;;;5013445;28;20038;-83
2023/01/05 00:39:16;;;;;;;64.03;7.65;;;9.10;99.90;;;;;;5013428;28;20068;-83
2023/01/05 00:41:41;;;;;;;53.25;6.90;;;9.10;99.90;;;;;;5013439;28;20556;-83
2023/01/05 00:44:07;;;;;;;66.18;8.68;;;9.10;99.90;;;;;;5013242;28;20038;-83
2023/01/05 00:46:33;;;;;;;67.70;8.85;;;9.00;99.90;;;;;;5013257;28;20473;-83
2023/01/05 00:48:58;;;;;;;63.55;9.27;;;9.10;99.90;;;;;;5014123;28;20385;-83
2023/01/05 00:51:24;;;;;;;60.97;9.38;;;9.00;99.90;;;;;;5012951;28;20507;-83
2023/01/05 00:53:49;;;;;;;63.28;8.77;;;9.00;99.90;;;;;;5012973;28;20080;-83
2023/01/05 00:56:15;;;;;;;49.80;7.82;;;9.00;99.90;;;;;;5014105;28;20049;-82
2023/01/05 00:58:41;;;;;;;58.00;8.82;;;9.00;99.90;;;;;;5013961;28;20077;-82
2023/01/05 01:01:11;;;;;;;64.20;7.72;;;9.00;99.90;;;;;;5014050;28;20057;-82
2023/01/05 01:03:37;;;;;;;66.55;8.70;;;9.10;99.90;;;;;;5013012;28;20076;-82
2023/01/05 01:06:03;;;;;;;45.70;8.60;;;9.00;99.90;;;;;;5013037;28;20477;-82
2023/01/05 01:08:29;;;;;;;61.22;8.77;;;9.00;99.90;;;;;;5012647;28;20057;-82
2023/01/05 01:10:55;;;;;;;58.47;7.93;;;9.00;99.90;;;;;;5012578;28;20046;-82
2023/01/05 01:13:23;;;;;;;70.53;9.68;;;9.10;99.90;;;;;;5012659;28;20099;-82
2023/01/05 01:15:49;;;;;;;78.68;12.60;;;9.00;99.90;;;;;;5012607;28;20057;-83
2023/01/05 01:18:15;;;;;;;64.30;8.07;;;9.20;99.90;;;;;;5012639;28;20371;-82
2023/01/05 01:20:40;;;;;;;49.85;7.00;;;9.10;99.90;;;;;;5012872;28;20524;-82
2023/01/05 01:23:07;;;;;;;52.83;9.23;;;9.00;99.90;;;;;;5012557;28;20046;-82
2023/01/05 01:25:32;;;;;;;58.45;8.43;;;9.10;99.90;;;;;;5012665;28;20046;-83
2023/01/05 01:27:58;;;;;;;53.58;6.95;;;9.00;99.90;;;;;;5012331;28;20049;-82
2023/01/05 01:30:24;;;;;;;51.33;6.20;;;9.10;99.90;;;;;;5012479;28;20474;-82
2023/01/05 01:32:49;;;;;;;46.65;7.57;;;9.20;99.90;;;;;;5012627;28;20050;-83
2023/01/05 01:35:15;;;;;;;50.08;7.30;;;9.10;99.90;;;;;;5012739;28;20052;-83
2023/01/05 01:37:41;;;;;;;49.53;8.02;;;9.20;99.90;;;;;;5012707;28;20127;-83
2023/01/05 01:40:07;;;;;;;65.90;10.48;;;9.20;99.90;;;;;;5012819;28;20129;-83
2023/01/05 01:42:33;;;;;;;61.13;9.30;;;9.10;99.90;;;;;;5016486;28;20100;-84
2023/01/05 01:45:00;;;;;;;54.38;6.72;;;9.10;99.90;;;;;;5016121;28;20049;-83
2023/01/05 01:47:26;;;;;;;52.60;7.38;;;9.10;99.90;;;;;;5017518;28;20054;-83
2023/01/05 01:49:53;;;;;;;44.72;7.07;;;9.20;99.90;;;;;;5016226;28;20127;-83
2023/01/05 01:52:21;;;;;;;50.03;6.60;;;9.20;99.90;;;;;;5016453;28;20042;-83
2023/01/05 01:54:47;;;;;;;45.10;7.97;;;9.00;99.90;;;;;;5016242;28;20053;-83
2023/01/05 01:57:14;;;;;;;56.10;7.10;;;9.20;99.90;;;;;;5016268;28;20057;-84
2023/01/05 01:59:40;;;;;;;51.63;8.00;;;9.10;99.90;;;;;;5015936;28;20502;-84
2023/01/05 02:02:07;;;;;;;51.30;5.95;;;9.10;99.90;;;;;;5016029;28;20041;-83
2023/01/05 02:04:35;;;;;;;43.58;6.03;;;9.20;99.90;;;;;;5016291;28;20061;-83
2023/01/05 02:07:01;;;;;;;51.03;6.55;;;9.20;99.90;;;;;;5015956;28;20128;-83
2023/01/05 02:09:28;;;;;;;59.83;9.25;;;9.20;99.90;;;;;;5016907;28;20402;-84
2023/01/05 02:12:12;;;;;;;40.90;6.88;;;9.20;99.90;;;;;;5015566;28;20426;-83
2023/01/05 02:14:59;;;;;;;62.00;8.50;;;9.20;99.90;;;;;;5015803;28;20060;-83
2023/01/05 02:17:27;;;;;;;57.92;8.23;;;9.20;99.90;;;;;;5015764;28;20509;-83
2023/01/05 02:20:35;;;;;;;56.13;8.73;;;9.10;99.90;;;;;;5015808;28;20042;-83
2023/01/05 02:23:32;;;;;;;48.63;6.55;;;9.20;99.90;;;;;;5015681;28;20053;-84
2023/01/05 02:26:16;;;;;;;51.22;6.70;;;9.10;99.90;;;;;;5015419;28;20442;-83
2023/01/05 02:29:10;;;;;;;76.80;11.77;;;9.10;99.90;;;;;;5015457;28;20042;-83
2023/01/05 02:31:44;;;;;;;43.15;5.88;;;9.20;99.90;;;;;;5015781;28;20397;-83
2023/01/05 02:34:32;;;;;;;60.25;7.50;;;9.20;99.90;;;;;;5015514;28;20053;-83
2023/01/05 02:37:07;;;;;;;64.22;7.22;;;9.10;99.90;;;;;;5015581;28;20155;-84
2023/01/05 02:39:55;;;;;;;49.00;7.05;;;9.10;99.90;;;;;;5015630;28;20046;-83
2023/01/05 02:42:27;;;;;;;65.53;8.63;;;9.20;99.90;;;;;;5015330;28;20490;-83
2023/01/05 02:44:53;;;;;;;55.05;7.82;;;9.20;99.90;;;;;;5015354;28;20050;-83
2023/01/05 02:47:26;;;;;;;58.00;8.77;;;9.10;99.90;;;;;;5015300;28;20057;-83
2023/01/05 02:49:58;;;;;;;51.78;7.82;;;9.10;99.90;;;;;;5014993;28;20049;-83
2023/01/05 02:52:25;;;;;;;58.97;8.20;;;9.10;99.90;;;;;;5014863;28;20386;-83
2023/01/05 02:55:00;;;;;;;59.47;8.32;;;9.20;99.90;;;;;;5015299;28;20046;-83
2023/01/05 02:57:47;;;;;;;50.45;6.82;;;9.10;99.90;;;;;;5014923;28;20121;-83
2023/01/05 03:00:15;;;;;;;42.85;6.32;;;9.10;99.90;;;;;;5016298;28;20046;-83
2023/01/05 03:02:44;;;;;;;58.55;6.50;;;9.30;99.90;;;;;;5014940;28;20046;-83
2023/01/05 03:05:20;;;;;;;64.95;6.68;;;9.20;99.90;;;;;;5014863;28;20485;-83
2023/01/05 03:07:46;;;;;;;57.72;8.52;;;9.10;99.90;;;;;;5014723;28;20054;-83
2023/01/05 03:15:51;;;;;;;52.28;8.60;;;9.20;99.90;;;;;;5015981;28;20050;-84
2023/01/05 03:18:19;;;;;;;58.90;9.27;;;9.20;99.90;;;;;;5015733;28;20046;-83
2023/01/05 03:20:49;;;;;;;47.97;6.70;;;9.20;99.90;;;;;;5015742;28;20081;-84
2023/01/05 03:38:11;;;;;;;40.17;7.30;;;9.20;99.90;;;;;;5014202;28;20123;-84
2023/01/05 03:40:38;;;;;;;60.00;8.05;;;9.20;99.90;;;;;;5014051;28;20041;-84
2023/01/05 03:43:05;;;;;;;59.97;9.73;;;9.20;99.90;;;;;;5015451;28;20063;-84
2023/01/05 03:45:36;;;;;;;59.22;8.52;;;9.10;99.90;;;;;;5014017;28;20054;-84
2023/01/05 03:48:02;;;;;;;58.47;11.07;;;9.20;99.90;;;;;;5013945;28;20050;-84
2023/01/05 03:50:28;;;;;;;73.25;8.65;;;9.10;99.90;;;;;;5013968;28;20052;-83
2023/01/05 03:52:53;;;;;;;56.28;8.35;;;9.10;99.90;;;;;;5013959;28;20524;-84
2023/01/05 03:55:19;;;;;;;52.20;7.70;;;9.30;99.90;;;;;;5014210;28;20053;-84
2023/01/05 03:57:44;;;;;;;60.00;8.38;;;9.30;99.90;;;;;;5014011;28;20037;-84
2023/01/05 04:00:11;;;;;;;55.30;6.47;;;9.20;99.90;;;;;;5013652;28;20472;-84
2023/01/05 04:02:36;;;;;;;59.67;8.38;;;9.30;99.90;;;;;;5013201;28;20050;-84
2023/01/05 04:05:02;;;;;;;58.10;8.50;;;9.20;99.90;;;;;;5014642;28;20057;-84
2023/01/05 04:07:28;;;;;;;53.35;8.30;;;9.20;99.90;;;;;;5013739;28;20049;-84
2023/01/05 04:09:53;;;;;;;56.97;9.63;;;9.20;99.90;;;;;;5013661;28;20046;-84
2023/01/05 04:12:19;;;;;;;67.70;9.25;;;9.20;99.90;;;;;;5013502;28;20406;-84
2023/01/05 04:14:45;;;;;;;72.13;10.43;;;9.10;99.90;;;;;;5014549;28;20137;-84
2023/01/05 04:17:10;;;;;;;75.30;10.30;;;9.20;99.90;;;;;;5014801;28;20042;-83
2023/01/05 04:19:36;;;;;;;58.30;8.73;;;9.10;99.90;;;;;;5013433;28;20088;-84
2023/01/05 04:22:02;;;;;;;57.90;8.68;;;9.30;99.90;;;;;;5014687;28;20049;-84
2023/01/05 04:24:27;;;;;;;63.38;9.23;;;9.20;99.90;;;;;;5013396;28;20038;-84
2023/01/05 04:26:53;;;;;;;55.15;8.30;;;9.20;99.90;;;;;;5013466;28;20053;-84
2023/01/05 04:29:18;;;;;;;59.80;7.45;;;9.30;99.90;;;;;;5014356;28;20371;-84
2023/01/05 04:31:44;;;;;;;68.43;9.70;;;9.20;99.90;;;;;;5013521;28;20080;-84
2023/01/05 04:34:10;;;;;;;61.35;9.68;;;9.30;99.90;;;;;;5014738;28;20045;-84
2023/01/05 04:36:35;;;;;;;47.33;9.13;;;9.20;99.90;;;;;;5033276;28;20049;-84
2023/01/05 04:39:01;;;;;;;53.80;7.88;;;9.20;99.90;;;;;;5032886;28;20045;-84
2023/01/05 04:41:26;;;;;;;51.22;7.85;;;9.20;99.90;;;;;;5032758;28;20045;-84
2023/01/05 04:43:52;;;;;;;67.65;8.43;;;9.10;99.90;;;;;;5032729;28;20048;-84
2023/01/05 04:46:18;;;;;;;64.82;9.18;;;9.20;99.90;;;;;;5032752;28;20046;-84
2023/01/05 04:48:43;;;;;;;75.25;8.85;;;9.10;99.90;;;;;;5032951;28;20060;-84
2023/01/05 04:51:09;;;;;;;63.58;10.27;;;9.30;99.90;;;;;;5032719;28;20385;-84
2023/01/05 04:53:34;;;;;;;61.67;9.13;;;9.20;99.90;;;;;;5032732;28;20469;-84
2023/01/05 04:56:00;;;;;;;52.15;8.27;;;9.30;99.90;;;;;;5032565;28;20080;-84
2023/01/05 04:58:26;;;;;;;63.03;10.40;;;9.20;99.90;;;;;;5032762;28;20048;-84
2023/01/05 05:00:51;;;;;;;37.42;5.85;;;9.30;99.90;;;;;;5032749;28;20497;-84
2023/01/05 05:03:17;;;;;;;53.38;7.93;;;9.30;99.90;;;;;;5032752;28;20125;-84
2023/01/05 05:05:42;;;;;;;49.65;6.47;;;9.30;99.90;;;;;;5033859;28;20046;-84
2023/01/05 05:08:08;;;;;;;48.85;7.63;;;9.30;99.90;;;;;;5032333;28;20045;-84
2023/01/05 05:10:34;;;;;;;59.75;8.43;;;9.30;99.90;;;;;;5032383;28;20065;-83
2023/01/05 05:13:00;;;;;;;65.35;8.77;;;9.10;99.90;;;;;;5032383;28;20041;-84
2023/01/05 05:15:25;;;;;;;54.45;7.82;;;9.20;99.90;;;;;;5032156;28;20062;-84
2023/01/05 05:17:51;;;;;;;76.97;8.10;;;9.30;99.90;;;;;;5032623;28;20052;-84
2023/01/05 05:20:17;;;;;;;53.60;6.50;;;9.20;99.90;;;;;;5032627;28;20046;-84
2023/01/05 05:22:42;;;;;;;70.00;9.50;;;9.30;99.90;;;;;;5032591;28;20396;-84
2023/01/05 05:25:08;;;;;;;87.55;9.85;;;9.20;99.90;;;;;;5032208;28;20041;-83
2023/01/05 05:27:34;;;;;;;66.80;10.05;;;9.20;99.90;;;;;;5032234;28;20048;-84
2023/01/05 05:30:00;;;;;;;49.92;7.57;;;9.20;99.90;;;;;;5032113;28;20049;-84
2023/01/05 05:32:25;;;;;;;62.15;9.38;;;9.20;99.90;;;;;;5032283;28;20038;-83
2023/01/05 05:34:51;;;;;;;53.10;7.85;;;9.20;99.90;;;;;;5032518;28;20091;-84
2023/01/05 05:37:16;;;;;;;66.25;10.80;;;9.10;99.90;;;;;;5032204;28;20042;-84
2023/01/05 05:39:42;;;;;;;49.97;8.57;;;9.30;99.90;;;;;;5032341;28;20049;-84
2023/01/05 05:42:08;;;;;;;63.28;11.13;;;9.20;99.90;;;;;;5032341;28;20044;-84
2023/01/05 05:44:33;;;;;;;49.53;7.70;;;9.30;99.90;;;;;;5032065;28;20207;-84
2023/01/05 05:46:59;;;;;;;65.20;8.95;;;9.30;99.90;;;;;;5032344;28;20042;-84
2023/01/05 05:49:25;;;;;;;70.78;10.90;;;9.30;99.90;;;;;;5032142;28;20056;-84
2023/01/05 05:51:50;;;;;;;65.85;9.63;;;9.20;99.90;;;;;;5031866;28;20124;-84
2023/01/05 05:54:16;;;;;;;75.05;10.02;;;9.20;99.90;;;;;;5033358;28;20054;-84
2023/01/05 05:56:41;;;;;;;61.63;8.95;;;9.20;99.90;;;;;;5033362;28;20046;-83
2023/01/05 05:59:07;;;;;;;67.88;9.98;;;9.10;99.90;;;;;;5032224;28;20056;-84
2023/01/05 06:01:33;;;;;;;66.63;11.82;;;9.10;99.90;;;;;;5033185;28;20508;-84
2023/01/05 06:03:59;;;;;;;60.38;9.60;;;9.20;99.90;;;;;;5032260;28;20046;-84
2023/01/05 06:06:24;;;;;;;64.72;12.00;;;9.10;99.90;;;;;;5031974;28;20111;-84
2023/01/05 06:08:50;;;;;;;60.90;7.93;;;9.20;99.90;;;;;;5033393;28;20049;-83
2023/01/05 06:11:15;;;;;;;78.40;11.68;;;9.10;99.90;;;;;;5032032;28;20045;-84
2023/01/05 06:13:41;;;;;;;59.25;8.75;;;9.10;99.90;;;;;;5031612;28;20053;-84
2023/01/05 06:16:07;;;;;;;57.08;8.55;;;9.00;99.90;;;;;;5031906;28;20053;-84
2023/01/05 06:18:32;;;;;;;64.40;10.85;;;9.00;99.90;;;;;;5031874;28;20045;-84
2023/01/05 06:20:58;;;;;;;80.82;11.13;;;9.10;99.90;;;;;;5031798;28;20053;-84
2023/01/05 06:23:24;;;;;;;67.65;12.35;;;9.00;99.90;;;;;;5031713;28;20137;-84
2023/01/05 06:25:49;;;;;;;70.53;10.25;;;9.00;99.90;;;;;;5031819;28;20034;-84
2023/01/05 06:28:15;;;;;;;56.45;8.68;;;9.00;99.90;;;;;;5036634;28;20041;-83
2023/01/05 06:30:40;;;;;;;63.65;8.73;;;9.10;99.90;;;;;;5035601;28;20085;-84
2023/01/05 06:33:06;;;;;;;77.95;10.32;;;9.00;99.90;;;;;;5036518;28;20158;-84
2023/01/05 06:35:32;;;;;;;67.90;10.00;;;9.10;99.90;;;;;;5036342;28;20037;-83
2023/01/05 06:37:57;;;;;;;70.70;8.77;;;9.10;99.90;;;;;;5035269;28;20045;-84
2023/01/05 06:40:23;;;;;;;49.50;8.10;;;9.10;99.90;;;;;;5035021;28;20504;-84
2023/01/05 06:42:48;;;;;;;65.78;9.38;;;9.10;99.90;;;;;;5035279;28;20045;-84
2023/01/05 06:45:15;;;;;;;54.95;8.68;;;9.20;99.90;;;;;;5035044;28;20081;-84
2023/01/05 06:47:43;;;;;;;63.65;12.10;;;9.10;99.90;;;;;;5035226;28;20485;-84
2023/01/05 06:50:09;;;;;;;66.75;10.18;;;9.10;99.90;;;;;;5034912;28;20507;-84
2023/01/05 06:52:38;;;;;;;51.83;9.73;;;9.20;99.90;;;;;;5035229;28;20057;-83
2023/01/05 06:55:05;;;;;;;93.55;10.68;;;9.10;99.90;;;;;;5034708;28;20052;-83
2023/01/05 06:57:31;;;;;;;63.50;8.80;;;9.00;99.90;;;;;;5035949;28;20575;-83
2023/01/05 06:59:56;;;;;;;75.05;11.10;;;9.00;99.90;;;;;;5035011;28;20132;-83
2023/01/05 07:02:22;;;;;;;70.97;9.60;;;9.10;99.90;;;;;;5034752;28;20436;-84
2023/01/05 07:04:48;;;;;;;77.00;9.48;;;9.10;99.90;;;;;;5034720;28;20068;-83
2023/01/05 07:07:14;;;;;;;71.22;10.93;;;8.90;99.90;;;;;;5035919;28;20041;-83
2023/01/05 07:09:40;;;;;;;70.85;9.32;;;9.10;99.90;;;;;;5036037;28;20071;-83
2023/01/05 07:12:06;;;;;;;88.38;11.43;;;9.10;99.90;;;;;;5035164;28;20459;-84
2023/01/05 07:14:31;;;;;;;64.35;9.85;;;9.00;99.90;;;;;;5035409;28;20472;-84
2023/01/05 07:16:57;;;;;;;58.55;8.88;;;9.10;99.90;;;;;;5034539;28;20172;-84
2023/01/05 07:19:23;;;;;;;68.72;9.90;;;9.00;99.90;;;;;;5034419;28;20111;-83
2023/01/05 07:21:48;;;;;;;67.43;9.57;;;9.00;99.90;;;;;;5034268;28;20496;-83
2023/01/05 07:24:14;;;;;;;68.30;10.05;;;8.90;99.90;;;;;;5034508;28;20081;-84
2023/01/05 07:26:40;;;;;;;62.75;9.77;;;8.90;99.90;;;;;;5034237;28;20065;-83
2023/01/05 07:29:05;;;;;;;59.08;9.80;;;8.90;99.90;;;;;;5034343;28;20120;-83
2023/01/05 07:31:31;;;;;;;68.20;11.98;;;9.00;99.90;;;;;;5034173;28;20438;-83
2023/01/05 07:33:56;;;;;;;56.28;9.85;;;9.00;99.90;;;;;;5034104;28;20045;-83
2023/01/05 07:36:23;;;;;;;65.72;10.68;;;9.00;99.90;;;;;;5034159;28;20497;-83
2023/01/05 07:38:48;;;;;;;66.45;9.38;;;9.00;99.90;;;;;;5032862;28;20049;-83
2023/01/05 07:41:14;;;;;;;59.78;11.05;;;9.10;99.90;;;;;;5033767;28;20091;-83
2023/01/05 07:43:40;;;;;;;74.28;9.77;;;9.00;99.90;;;;;;5033825;28;20087;-83
2023/01/05 07:46:06;;;;;;;51.97;7.45;;;9.00;99.90;;;;;;5033962;28;20053;-84
2023/01/05 07:48:31;;;;;;;64.75;8.80;;;9.10;99.90;;;;;;5033723;28;20041;-84
2023/01/05 07:51:04;;;;;;;75.47;10.18;;;9.00;99.90;;;;;;5033461;28;20168;-82
2023/01/05 07:53:33;;;;;;;68.72;9.73;;;9.00;99.90;;;;;;5033107;28;20496;-83
2023/01/05 07:56:00;;;;;;;73.95;11.20;;;9.00;99.90;;;;;;5033473;28;20100;-82
2023/01/05 07:58:27;;;;;;;63.30;11.65;;;9.10;99.90;;;;;;5033751;28;20049;-83
2023/01/05 08:00:53;;;;;;;85.50;10.20;;;9.00;99.90;;;;;;5033346;28;20592;-80
2023/01/05 08:03:19;;;;;;;53.72;9.25;;;8.90;99.90;;;;;;5026419;28;20100;-81
2023/01/05 08:05:45;;;;;;;69.68;8.65;;;9.00;99.90;;;;;;5018995;28;20122;-82
2023/01/05 08:08:11;;;;;;;62.00;10.57;;;9.00;99.90;;;;;;5013396;28;20050;-79
2023/01/05 08:10:38;;;;;;;43.30;6.55;;;8.90;99.90;;;;;;5013522;28;20527;-82
2023/01/05 08:15:51;;;;;;;38.80;5.30;;;8.80;99.90;;;;;;5013101;28;20544;-82
2023/01/05 08:18:18;;;;;;;37.40;4.45;;;8.80;99.90;;;;;;5013288;28;20522;-83
2023/01/05 08:20:53;;;;;;;25.65;4.85;;;8.70;99.90;;;;;;5013012;28;20046;-82
2023/01/05 08:23:18;;;;;;;18.90;3.60;;;8.70;99.90;;;;;;5013042;28;20049;-83
2023/01/05 08:25:44;;;;;;;18.17;2.35;;;8.80;99.90;;;;;;5013018;28;20042;-82
2023/01/05 08:28:10;;;;;;;25.63;3.03;;;8.60;99.90;;;;;;5012883;28;20050;-82
2023/01/05 08:30:35;;;;;;;18.50;2.22;;;8.70;99.90;;;;;;5012839;28;20050;-82
2023/01/05 08:33:01;;;;;;;20.23;2.67;;;8.70;99.90;;;;;;5012899;28;20048;-85
2023/01/05 08:35:27;;;;;;;16.38;2.00;;;8.70;99.90;;;;;;5012805;28;20049;-82
2023/01/05 08:37:52;;;;;;;24.67;2.83;;;8.50;99.90;;;;;;5012842;28;20421;-82
2023/01/05 08:40:18;;;;;;;29.23;3.38;;;8.50;99.90;;;;;;5012759;28;20038;-83
2023/01/05 08:42:47;;;;;;;34.13;5.68;;;8.60;99.90;;;;;;5013854;28;20045;-83
2023/01/05 08:45:14;;;;;;;24.45;4.15;;;8.50;99.90;;;;;;5012649;28;20393;-83
2023/01/05 08:47:39;;;;;;;26.73;3.85;;;8.60;99.90;;;;;;5012557;28;20050;-83
2023/01/05 08:50:06;;;;;;;30.15;4.53;;;8.50;99.90;;;;;;5012229;28;20115;-83
2023/01/05 08:52:31;;;;;;;39.20;6.30;;;8.50;99.90;;;;;;5012597;28;20440;-83
2023/01/05 08:54:57;;;;;;;21.50;3.05;;;8.50;99.90;;;;;;5012531;28;20046;-83
2023/01/05 08:57:23;;;;;;;41.40;6.40;;;8.60;99.90;;;;;;5012447;28;20053;-83
2023/01/05 08:59:48;;;;;;;28.92;3.58;;;8.60;99.90;;;;;;5012669;28;20045;-84
2023/01/05 09:02:14;;;;;;;33.97;4.07;;;8.50;99.90;;;;;;5012409;28;20394;-85
2023/01/05 09:04:39;;;;;;;25.65;3.03;;;8.60;99.90;;;;;;5012697;28;20080;-87
2023/01/05 09:07:05;;;;;;;37.33;4.22;;;8.50;99.90;;;;;;5013925;28;20390;-87
2023/01/05 09:09:31;;;;;;;20.35;3.40;;;8.60;99.90;;;;;;5012405;28;20061;-84
2023/01/05 09:11:57;;;;;;;30.52;4.85;;;8.50;99.90;;;;;;5012388;28;20493;-87
2023/01/05 09:14:22;;;;;;;29.13;3.50;;;8.60;99.90;;;;;;5012040;28;20520;-85
2023/01/05 09:16:48;;;;;;;31.67;4.00;;;8.60;99.90;;;;;;5012481;28;20501;-85
2023/01/05 09:19:14;;;;;;;35.22;6.10;;;8.50;99.90;;;;;;5012171;28;20453;-85
2023/01/05 09:21:39;;;;;;;32.17;4.70;;;8.60;99.90;;;;;;5012141;28;20049;-85
2023/01/05 09:24:11;;;;;;;44.97;4.50;;;8.50;99.90;;;;;;5012217;28;20053;-84
2023/01/05 09:26:37;;;;;;;44.92;8.23;;;8.60;99.90;;;;;;5012256;28;20092;-83
2023/01/05 09:29:03;;;;;;;34.00;5.60;;;8.40;99.90;;;;;;5012233;28;20471;-83
2023/01/05 09:31:28;;;;;;;31.45;4.00;;;8.60;99.90;;;;;;5012087;28;20038;-83
2023/01/05 09:33:56;;;;;;;54.35;6.90;;;8.60;99.90;;;;;;5012126;28;20057;-83
2023/01/05 09:36:23;;;;;;;28.08;4.07;;;8.50;99.90;;;;;;5012420;28;20088;-84
2023/01/05 09:38:50;;;;;;;49.83;5.28;;;8.50;99.90;;;;;;5013312;28;20045;-83
2023/01/05 09:41:23;;;;;;;40.35;4.40;;;8.60;99.90;;;;;;5012199;28;20119;-83
2023/01/05 09:43:52;;;;;;;34.58;4.57;;;8.60;99.90;;;;;;5012010;28;20045;-83
2023/01/05 09:46:21;;;;;;;37.83;4.65;;;8.50;99.90;;;;;;5012223;28;20057;-81
2023/01/05 09:48:51;;;;;;;43.13;5.10;;;8.70;99.90;;;;;;5011807;28;20132;-82
2023/01/05 09:51:17;;;;;;;24.50;4.90;;;8.70;99.90;;;;;;5012146;28;20062;-82
2023/01/05 09:53:44;;;;;;;43.97;4.45;;;8.70;99.90;;;;;;5012184;28;20128;-83
2023/01/05 09:56:37;;;;;;;39.40;5.15;;;8.80;99.90;;;;;;5011988;28;20054;-83
2023/01/05 09:59:39;;;;;;;32.45;4.18;;;9.00;99.90;;;;;;5013396;28;20108;-83
2023/01/05 10:02:47;;;;;;;48.75;5.18;;;8.90;99.90;;;;;;4981577;28;20057;-82
2023/01/05 10:05:14;;;;;;;29.83;4.97;;;9.10;99.90;;;;;;4996223;28;20064;-82
2023/01/05 10:07:46;;;;;;;37.15;5.22;;;9.10;99.90;;;;;;5015515;28;20041;-82
2023/01/05 10:10:31;;;;;;;30.40;7.35;;;9.10;99.90;;;;;;5015382;28;20046;-82
2023/01/05 10:13:03;;;;;;;29.67;4.82;;;9.30;99.90;;;;;;5015536;28;20046;-82
2023/01/05 10:15:51;;;;;;;31.48;3.42;;;9.30;99.90;;;;;;5015288;28;20137;-83
2023/01/05 10:18:22;;;;;;;32.85;4.00;;;9.40;99.90;;;;;;5015457;28;20042;-85
2023/01/05 10:20:51;;;;;;;24.90;3.47;;;9.30;99.90;;;;;;5015638;28;20054;-82
2023/01/05 10:23:25;;;;;;;34.60;5.63;;;9.20;99.90;;;;;;5015595;28;20050;-82
2023/01/05 10:25:58;;;;;;;33.10;3.78;;;9.10;99.90;;;;;;5015525;28;20046;-79
2023/01/05 10:28:38;;;;;;;30.00;3.88;;;8.90;99.90;;;;;;5016620;28;20049;-84
2023/01/05 10:31:26;;;;;;;30.27;3.70;;;9.00;99.90;;;;;;5015413;28;20056;-83
2023/01/05 10:34:13;;;;;;;44.90;5.07;;;8.90;99.90;;;;;;5015371;28;20046;-82
2023/01/05 10:37:20;;;;;;;36.70;5.82;;;8.80;99.90;;;;;;5015083;28;20049;-81
2023/01/05 10:40:05;;;;;;;38.40;6.25;;;8.90;99.90;;;;;;5016142;28;20516;-81
2023/01/05 10:42:39;;;;;;;35.92;4.68;;;9.10;99.90;;;;;;5016402;28;20093;-83
2023/01/05 10:45:10;;;;;;;35.47;4.68;;;9.10;99.90;;;;;;5015075;28;20137;-82
2023/01/05 10:47:37;;;;;;;37.05;3.85;;;9.20;99.90;;;;;;5014685;28;20441;-83
2023/01/05 10:50:26;;;;;;;37.03;5.10;;;9.20;99.90;;;;;;5015854;28;20046;-83
2023/01/05 10:52:52;;;;;;;39.30;4.72;;;9.20;99.90;;;;;;5015266;28;20425;-87
2023/01/05 10:55:20;;;;;;;38.08;5.78;;;9.10;99.90;;;;;;5014629;28;20405;-86
2023/01/05 10:57:46;;;;;;;40.90;5.90;;;9.20;99.90;;;;;;5021368;28;20048;-86
2023/01/05 11:00:18;;;;;;;71.05;9.50;;;9.20;99.90;;;;;;5023262;28;20037;-86
2023/01/05 11:02:51;;;;;;;38.80;8.90;;;9.30;99.90;;;;;;5019954;28;20046;-88
2023/01/05 11:05:27;;;;;;;44.10;5.07;;;9.20;99.90;;;;;;5015227;28;20053;-86
2023/01/05 11:07:54;;;;;;;37.25;5.57;;;9.20;99.90;;;;;;5014961;28;20085;-86
2023/01/05 11:10:23;;;;;;;49.47;5.15;;;9.20;99.90;;;;;;5019140;28;20046;-87
2023/01/05 11:12:53;;;;;;;34.15;5.10;;;9.20;99.90;;;;;;5035436;28;20501;-86
2023/01/05 11:15:20;;;;;;;35.38;4.00;;;9.30;99.90;;;;;;5033684;28;20524;-85
2023/01/05 11:17:46;;;;;;;26.02;4.40;;;9.40;99.90;;;;;;5025604;28;20099;-86
2023/01/05 11:20:16;;;;;;;31.70;4.30;;;9.40;99.90;;;;;;5024421;28;20172;-86
2023/01/05 11:22:43;;;;;;;41.72;4.57;;;9.40;99.90;;;;;;5024132;28;20401;-87
2023/01/05 11:25:18;;;;;;;28.63;3.83;;;9.50;99.90;;;;;;5033698;28;20071;-86
2023/01/05 11:27:44;;;;;;;23.40;3.38;;;9.40;99.90;;;;;;5033949;28;20037;-87
2023/01/05 11:30:23;;;;;;;23.23;4.10;;;9.30;99.90;;;;;;5033684;28;20052;-86
2023/01/05 11:32:48;;;;;;;25.50;3.92;;;9.30;99.90;;;;;;5033979;28;20504;-86
2023/01/05 11:35:29;;;;;;;23.35;4.57;;;9.40;99.90;;;;;;5033978;28;20041;-86
2023/01/05 11:37:56;;;;;;;29.75;4.07;;;9.40;99.90;;;;;;5033690;28;20060;-86
2023/01/05 11:40:25;;;;;;;30.33;4.05;;;9.40;99.90;;;;;;5033530;28;20523;-86
2023/01/05 11:42:51;;;;;;;33.30;4.88;;;9.30;99.90;;;;;;5025040;28;20056;-86
2023/01/05 11:45:23;;;;;;;26.85;4.90;;;9.20;99.90;;;;;;5016366;28;20189;-87
2023/01/05 11:47:57;;;;;;;36.20;4.60;;;9.20;99.90;;;;;;5013881;28;20164;-87
2023/01/05 11:50:25;;;;;;;43.15;6.07;;;9.30;99.90;;;;;;5013476;28;20420;-87
2023/01/05 11:52:56;;;;;;;32.97;5.45;;;9.40;99.90;;;;;;5013840;28;20046;-87
2023/01/05 11:55:32;;;;;;;38.83;5.57;;;9.30;99.90;;;;;;5013709;28;20046;-83
2023/01/05 11:58:16;;;;;;;29.48;6.75;;;9.30;99.90;;;;;;5013673;28;20053;-82
2023/01/05 12:01:04;;;;;;;32.00;5.88;;;9.50;99.90;;;;;;5013338;28;20378;-83
2023/01/05 12:04:00;;;;;;;45.40;6.00;;;9.50;99.90;;;;;;5013741;28;20057;-86
2023/01/05 12:06:48;;;;;;;30.27;5.60;;;9.40;99.90;;;;;;5015057;28;20080;-87
2023/01/05 12:09:35;;;;;;;31.80;5.45;;;9.50;99.90;;;;;;5040514;28;20048;-88
2023/01/05 12:12:42;;;;;;;33.72;6.15;;;9.70;99.90;;;;;;5053653;28;20128;-87
2023/01/05 12:15:17;;;;;;;31.08;5.97;;;9.70;99.90;;;;;;5053237;28;20067;-87
2023/01/05 12:18:01;;;;;;;34.88;5.38;;;9.70;99.90;;;;;;5052537;28;20052;-86
2023/01/05 12:20:46;;;;;;;34.10;5.35;;;9.70;99.90;;;;;;5048669;28;20032;-84
2023/01/05 12:23:50;;;;;;;33.22;5.70;;;9.70;99.90;;;;;;5052265;28;20049;-84
2023/01/05 12:26:28;;;;;;;30.58;5.18;;;9.70;99.90;;;;;;5052727;28;20044;-84
2023/01/05 12:29:13;;;;;;;35.95;5.72;;;9.60;99.90;;;;;;5013220;28;20050;-83
2023/01/05 12:32:16;;;;;;;52.75;5.85;;;9.70;99.90;;;;;;5014479;28;20070;-87
2023/01/05 12:35:03;;;;;;;30.90;5.15;;;9.60;99.90;;;;;;4938069;28;20063;-88
2023/01/05 12:37:50;;;;;;;35.45;5.78;;;9.70;99.90;;;;;;5010004;28;20054;-86
2023/01/05 12:40:31;;;;;;;40.53;5.68;;;9.70;99.90;;;;;;5013051;28;20049;-85
2023/01/05 12:43:06;;;;;;;48.65;6.35;;;9.70;99.90;;;;;;5012860;28;20061;-86
2023/01/05 12:45:37;;;;;;;46.35;6.55;;;9.80;99.90;;;;;;5013437;28;20042;-86
2023/01/05 12:48:15;;;;;;;29.88;5.85;;;9.70;99.90;;;;;;5013001;28;20503;-87
2023/01/05 12:50:43;;;;;;;47.55;5.78;;;9.90;99.90;;;;;;5013088;28;20386;-86
2023/01/05 12:53:40;;;;;;;49.75;7.85;;;10.00;99.90;;;;;;5032894;28;20041;-85
2023/01/05 12:56:44;;;;;;;36.03;5.60;;;10.00;99.90;;;;;;5025613;28;20108;-87
2023/01/05 12:59:19;;;;;;;40.35;6.18;;;9.90;99.90;;;;;;5013625;28;20342;-86
2023/01/05 13:02:13;;;;;;;36.90;5.32;;;9.90;99.90;;;;;;5031489;28;20080;-87
2023/01/05 13:04:44;;;;;;;39.40;7.13;;;9.80;99.90;;;;;;5023234;28;20477;-87
2023/01/05 13:07:28;;;;;;;43.72;8.77;;;9.90;99.90;;;;;;5013857;28;20391;-88
2023/01/05 13:10:02;;;;;;;41.40;6.38;;;9.80;99.90;;;;;;5012477;28;20386;-86
2023/01/05 13:12:28;;;;;;;51.17;10.00;;;9.90;99.90;;;;;;5012798;28;20050;-85
2023/01/05 13:15:14;;;;;;;45.20;6.53;;;9.90;99.90;;;;;;5012231;28;20061;-89
2023/01/05 13:17:47;;;;;;;49.83;8.50;;;9.80;99.90;;;;;;5013892;28;20073;-86
2023/01/05 13:20:21;;;;;;;53.20;8.75;;;9.80;99.90;;;;;;5011602;28;20486;-86
2023/01/05 13:22:50;;;;;;;41.42;7.40;;;9.80;99.90;;;;;;5026992;28;20087;-85
2023/01/05 13:25:21;;;;;;;62.30;8.13;;;9.90;99.90;;;;;;5031878;28;20042;-87
2023/01/05 13:27:47;;;;;;;45.97;7.97;;;9.80;99.90;;;;;;5043088;28;20083;-86
2023/01/05 13:30:29;;;;;;;40.50;6.80;;;9.70;99.90;;;;;;5031129;28;20085;-86
2023/01/05 13:33:23;;;;;;;69.78;9.02;;;9.70;99.90;;;;;;5033112;28;20500;-84
2023/01/05 13:35:49;;;;;;;35.15;7.68;;;9.80;99.90;;;;;;5031858;28;20060;-86
2023/01/05 13:38:45;;;;;;;40.33;7.10;;;9.70;99.90;;;;;;5035900;28;20042;-85